createdAt,value
2023-02-11T00:00:22.007Z,-11.30
2023-02-11T00:02:48.974Z,-11.23
2023-02-11T00:05:16.712Z,-11.19
2023-02-11T00:07:43.589Z,-11.13
2023-02-11T00:10:10.471Z,-11.09
2023-02-11T00:12:37.782Z,-11.08
2023-02-11T00:15:05.733Z,-11.15
2023-02-11T00:17:33.749Z,-11.28
2023-02-11T00:20:00.732Z,-11.44
2023-02-11T00:22:27.592Z,-11.60
2023-02-11T00:24:56.619Z,-11.73
2023-02-11T00:27:23.449Z,-11.82
2023-02-11T00:29:51.763Z,-11.88
2023-02-11T00:32:18.603Z,-11.88
2023-02-11T00:34:45.500Z,-11.91
2023-02-11T00:37:13.604Z,-11.88
2023-02-11T00:39:42.414Z,-11.82
2023-02-11T00:42:12.900Z,-11.78
2023-02-11T00:44:39.782Z,-11.79
2023-02-11T00:47:06.672Z,-11.91
2023-02-11T00:49:33.833Z,-12.01
2023-02-11T00:52:00.818Z,-12.09
2023-02-11T00:54:29.931Z,-12.15
2023-02-11T00:56:56.996Z,-12.21
2023-02-11T00:59:24.802Z,-12.24
2023-02-11T01:01:52.115Z,-12.30
2023-02-11T01:04:20.795Z,-12.41
2023-02-11T01:06:49.513Z,-12.58
2023-02-11T01:09:16.300Z,-12.76
2023-02-11T01:11:45.828Z,-12.88
2023-02-11T01:14:13.452Z,-12.93
2023-02-11T01:16:40.350Z,-12.98
2023-02-11T01:19:07.163Z,-13.05
2023-02-11T01:21:34.540Z,-13.12
2023-02-11T01:24:01.380Z,-13.20
2023-02-11T01:26:28.179Z,-13.22
2023-02-11T01:28:55.565Z,-13.24
2023-02-11T01:31:22.461Z,-13.26
2023-02-11T01:33:49.385Z,-13.27
2023-02-11T01:36:16.316Z,-13.27
2023-02-11T01:38:44.201Z,-13.22
2023-02-11T01:41:12.717Z,-13.18
2023-02-11T01:43:44.428Z,-13.14
2023-02-11T01:46:33.854Z,-13.13
2023-02-11T01:49:13.722Z,-13.14
2023-02-11T01:51:48.671Z,-13.20
2023-02-11T01:54:37.944Z,-13.24
2023-02-11T01:57:24.543Z,-13.25
2023-02-11T02:00:22.179Z,-13.26
2023-02-11T02:03:14.220Z,-13.24
2023-02-11T02:05:45.402Z,-13.24
2023-02-11T02:08:21.269Z,-13.26
2023-02-11T02:10:53.354Z,-13.34
2023-02-11T02:13:20.851Z,-13.40
2023-02-11T02:15:55.430Z,-13.49
2023-02-11T02:18:51.023Z,-13.56
2023-02-11T02:21:42.715Z,-13.66
2023-02-11T02:24:21.954Z,-13.76
2023-02-11T02:27:01.378Z,-13.87
2023-02-11T02:29:47.969Z,-13.98
2023-02-11T02:32:33.778Z,-14.14
2023-02-11T02:35:26.651Z,-14.30
2023-02-11T02:38:01.648Z,-14.43
2023-02-11T02:40:51.048Z,-14.48
2023-02-11T02:43:18.118Z,-14.43
2023-02-11T02:45:44.999Z,-14.38
2023-02-11T02:48:26.035Z,-14.35
2023-02-11T02:51:08.300Z,-14.31
2023-02-11T02:54:17.438Z,-14.28
2023-02-11T02:57:09.818Z,-14.30
2023-02-11T02:59:53.706Z,-14.39
2023-02-11T03:02:52.891Z,-14.49
2023-02-11T03:05:41.757Z,-14.54
2023-02-11T03:08:34.364Z,-14.59
2023-02-11T03:11:01.402Z,-14.63
2023-02-11T03:13:33.011Z,-14.63
2023-02-11T03:16:04.241Z,-14.64
2023-02-11T03:18:31.224Z,-14.65
2023-02-11T03:20:58.171Z,-14.66
2023-02-11T03:23:29.333Z,-14.65
2023-02-11T03:26:04.669Z,-14.68
2023-02-11T03:28:36.241Z,-14.73
2023-02-11T03:31:18.824Z,-14.77
2023-02-11T03:33:57.853Z,-14.84
2023-02-11T03:36:48.864Z,-14.87
2023-02-11T03:39:29.600Z,-14.91
2023-02-11T03:41:56.584Z,-14.92
2023-02-11T03:44:23.520Z,-14.96
2023-02-11T03:46:51.515Z,-15.02
2023-02-11T03:49:19.836Z,-15.04
2023-02-11T03:51:50.457Z,-15.04
2023-02-11T03:54:20.518Z,-15.04
2023-02-11T03:56:53.004Z,-15.04
2023-02-11T03:59:20.507Z,-15.09
2023-02-11T04:01:51.352Z,-15.16
2023-02-11T04:04:18.479Z,-15.23
2023-02-11T04:06:45.445Z,-15.26
2023-02-11T04:09:12.849Z,-15.24
2023-02-11T04:11:40.741Z,-15.24
2023-02-11T04:14:07.676Z,-15.25
2023-02-11T04:16:34.644Z,-15.26
2023-02-11T04:19:02.621Z,-15.26
2023-02-11T04:21:29.605Z,-15.28
2023-02-11T04:23:57.037Z,-15.28
2023-02-11T04:26:24.180Z,-15.28
2023-02-11T04:28:51.076Z,-15.30
2023-02-11T04:31:18.430Z,-15.31
2023-02-11T04:33:45.364Z,-15.30
2023-02-11T04:36:13.099Z,-15.30
2023-02-11T04:38:39.977Z,-15.30
2023-02-11T04:41:06.891Z,-15.30
2023-02-11T04:43:35.292Z,-15.29
2023-02-11T04:46:02.595Z,-15.28
2023-02-11T04:48:29.715Z,-15.28
2023-02-11T04:50:56.536Z,-15.27
2023-02-11T04:53:23.338Z,-15.27
2023-02-11T04:55:50.475Z,-15.26
2023-02-11T04:58:18.509Z,-15.26
2023-02-11T05:00:45.882Z,-15.26
2023-02-11T05:03:13.169Z,-15.23
2023-02-11T05:05:42.680Z,-15.20
2023-02-11T05:08:09.959Z,-15.19
2023-02-11T05:10:38.664Z,-15.17
2023-02-11T05:13:09.450Z,-15.17
2023-02-11T05:15:41.946Z,-15.15
2023-02-11T05:18:14.404Z,-15.12
2023-02-11T05:20:42.205Z,-15.07
2023-02-11T05:23:10.305Z,-15.02
2023-02-11T05:25:40.480Z,-14.93
2023-02-11T05:28:07.635Z,-14.85
2023-02-11T05:30:34.597Z,-14.76
2023-02-11T05:33:01.488Z,-14.69
2023-02-11T05:35:29.534Z,-14.62
2023-02-11T05:37:56.935Z,-14.53
2023-02-11T05:40:23.829Z,-14.43
2023-02-11T05:42:51.165Z,-14.35
2023-02-11T05:45:18.456Z,-14.27
2023-02-11T05:47:45.761Z,-14.21
2023-02-11T05:50:12.672Z,-14.11
2023-02-11T05:52:39.803Z,-13.98
2023-02-11T05:55:07.370Z,-13.86
2023-02-11T05:57:34.304Z,-13.78
2023-02-11T06:00:01.373Z,-13.70
2023-02-11T06:02:40.214Z,-13.62
2023-02-11T06:05:07.916Z,-13.55
2023-02-11T06:07:40.514Z,-13.44
2023-02-11T06:10:07.992Z,-13.27
2023-02-11T06:12:38.579Z,-13.08
2023-02-11T06:15:31.469Z,-12.86
2023-02-11T06:17:58.437Z,-12.63
2023-02-11T06:20:27.065Z,-12.44
2023-02-11T06:22:54.686Z,-12.25
2023-02-11T06:25:24.659Z,-12.03
2023-02-11T06:27:52.172Z,-11.84
2023-02-11T06:30:19.047Z,-11.71
2023-02-11T06:32:46.343Z,-11.58
2023-02-11T06:35:14.286Z,-11.47
2023-02-11T06:37:42.067Z,-11.37
2023-02-11T06:40:10.142Z,-11.19
2023-02-11T06:42:38.554Z,-10.96
2023-02-11T06:45:07.255Z,-10.72
2023-02-11T06:47:36.527Z,-10.46
2023-02-11T06:50:03.992Z,-10.21
2023-02-11T06:52:32.121Z,-10.00
2023-02-11T06:54:59.471Z,-9.78
2023-02-11T06:57:26.959Z,-9.56
2023-02-11T06:59:55.221Z,-9.36
2023-02-11T07:02:22.142Z,-9.16
2023-02-11T07:04:49.230Z,-9.04
2023-02-11T07:07:16.091Z,-8.94
2023-02-11T07:09:43.024Z,-8.81
2023-02-11T07:12:11.693Z,-8.64
2023-02-11T07:14:39.382Z,-8.42
2023-02-11T07:17:06.401Z,-8.17
2023-02-11T07:19:34.980Z,-7.93
2023-02-11T07:22:01.901Z,-7.70
2023-02-11T07:24:28.900Z,-7.49
2023-02-11T07:26:59.462Z,-7.28
2023-02-11T07:29:26.354Z,-7.09
2023-02-11T07:31:53.276Z,-6.94
2023-02-11T07:34:20.205Z,-6.80
2023-02-11T07:36:48.534Z,-6.66
2023-02-11T07:39:15.558Z,-6.52
2023-02-11T07:43:47.695Z,-6.27
2023-02-11T07:46:18.639Z,-6.16
2023-02-11T07:48:47.489Z,-6.06
2023-02-11T07:51:19.789Z,-6.00
2023-02-11T07:53:49.601Z,-5.93
2023-02-11T07:56:19.521Z,-5.93
2023-02-11T07:58:48.398Z,-6.03
2023-02-11T08:01:25.423Z,-6.08
2023-02-11T08:03:58.913Z,-6.04
2023-02-11T08:06:30.942Z,-6.03
2023-02-11T08:09:04.799Z,-5.96
2023-02-11T08:11:35.121Z,-5.78
2023-02-11T08:14:04.579Z,-5.56
2023-02-11T08:16:35.132Z,-5.33
2023-02-11T08:19:06.497Z,-5.13
2023-02-11T08:21:35.213Z,-4.93
2023-02-11T08:24:04.780Z,-4.72
2023-02-11T08:26:35.222Z,-4.43
2023-02-11T08:29:07.613Z,-4.22
2023-02-11T08:31:38.331Z,-4.10
2023-02-11T08:34:11.828Z,-3.97
2023-02-11T08:36:41.412Z,-3.74
2023-02-11T08:39:20.099Z,-3.53
2023-02-11T08:41:50.611Z,-3.33
2023-02-11T08:44:19.826Z,-3.19
2023-02-11T08:46:48.477Z,-3.04
2023-02-11T08:49:17.207Z,-3.01
2023-02-11T08:51:45.924Z,-2.99
2023-02-11T08:54:14.508Z,-3.07
2023-02-11T08:56:45.940Z,-3.09
2023-02-11T08:59:15.280Z,-3.01
2023-02-11T09:01:44.731Z,-2.85
2023-02-11T09:04:13.316Z,-2.63
2023-02-11T09:06:42.846Z,-2.38
2023-02-11T09:09:14.132Z,-2.16
2023-02-11T09:11:43.570Z,-2.00
2023-02-11T09:14:19.879Z,-1.95
2023-02-11T09:16:49.297Z,-1.96
2023-02-11T09:19:22.290Z,-1.91
2023-02-11T09:21:50.666Z,-1.76
2023-02-11T09:24:22.475Z,-1.51
2023-02-11T09:26:50.809Z,-1.31
2023-02-11T09:29:19.046Z,-1.18
2023-02-11T09:31:47.632Z,-1.02
2023-02-11T09:34:16.346Z,-0.83
2023-02-11T09:36:45.849Z,-0.66
2023-02-11T09:39:18.454Z,-0.52
2023-02-11T09:42:09.327Z,-0.41
2023-02-11T09:44:38.868Z,-0.30
2023-02-11T09:47:22.980Z,-0.23
2023-02-11T09:49:53.412Z,-0.16
2023-02-11T09:52:56.026Z,-0.11
2023-02-11T09:55:31.884Z,-0.10
2023-02-11T09:58:01.146Z,-0.16
2023-02-11T10:00:54.493Z,-0.18
2023-02-11T10:03:41.778Z,-0.22
2023-02-11T10:06:11.004Z,-0.31
2023-02-11T10:09:04.601Z,-0.38
2023-02-11T10:12:12.623Z,-0.49
2023-02-11T10:14:42.061Z,-0.52
2023-02-11T10:17:38.807Z,-0.40
2023-02-11T10:20:25.423Z,-0.26
2023-02-11T10:23:01.348Z,-0.23
2023-02-11T10:25:47.233Z,-0.33
2023-02-11T10:28:20.057Z,-0.21
2023-02-11T10:30:57.999Z,0.01
2023-02-11T10:33:48.075Z,0.10
2023-02-11T10:36:18.825Z,0.10
2023-02-11T10:38:47.080Z,0.16
2023-02-11T10:41:21.647Z,0.26
2023-02-11T10:43:50.214Z,0.32
2023-02-11T10:46:24.580Z,0.37
2023-02-11T10:48:54.028Z,0.41
2023-02-11T10:51:48.650Z,0.48
2023-02-11T10:54:24.732Z,0.57
2023-02-11T10:56:59.411Z,0.62
2023-02-11T10:59:34.320Z,0.55
2023-02-11T11:02:06.284Z,0.55
2023-02-11T11:04:41.242Z,0.61
2023-02-11T11:07:22.566Z,0.69
2023-02-11T11:09:56.026Z,0.72
2023-02-11T11:12:48.389Z,0.75
2023-02-11T11:15:22.116Z,0.76
2023-02-11T11:17:52.575Z,0.74
2023-02-11T11:20:23.282Z,0.72
2023-02-11T11:22:54.286Z,0.75
2023-02-11T11:25:53.220Z,0.80
2023-02-11T11:28:27.555Z,0.90
2023-02-11T11:30:56.201Z,0.93
2023-02-11T11:33:44.302Z,0.91
2023-02-11T11:36:17.527Z,0.87
2023-02-11T11:38:58.931Z,0.83
2023-02-11T11:41:29.029Z,0.79
2023-02-11T11:44:01.576Z,0.77
2023-02-11T11:46:58.693Z,0.79
2023-02-11T11:49:31.425Z,0.80
2023-02-11T11:52:10.828Z,0.77
2023-02-11T11:54:39.410Z,0.74
2023-02-11T11:57:15.464Z,0.73
2023-02-11T11:59:44.011Z,0.69
2023-02-11T12:02:32.629Z,0.63
2023-02-11T12:05:00.889Z,0.56
2023-02-11T12:07:51.626Z,0.55
2023-02-11T12:10:49.186Z,0.60
2023-02-11T12:13:42.642Z,0.69
2023-02-11T12:16:37.560Z,0.74
2023-02-11T12:19:30.300Z,0.76
2023-02-11T12:22:17.224Z,0.83
2023-02-11T12:25:04.848Z,0.95
2023-02-11T12:27:44.167Z,1.02
2023-02-11T12:30:37.402Z,1.06
2023-02-11T12:33:16.407Z,1.09
2023-02-11T12:36:26.245Z,1.06
2023-02-11T12:38:55.149Z,1.00
2023-02-11T12:41:51.130Z,0.94
2023-02-11T12:44:35.455Z,0.85
2023-02-11T12:47:13.321Z,0.76
2023-02-11T12:49:50.780Z,0.71
2023-02-11T12:52:57.493Z,0.64
2023-02-11T12:55:27.452Z,0.59
2023-02-11T12:58:00.565Z,0.55
2023-02-11T13:00:45.033Z,0.51
2023-02-11T13:03:36.050Z,0.47
2023-02-11T13:06:09.769Z,0.42
2023-02-11T13:08:41.866Z,0.38
2023-02-11T13:11:15.184Z,0.35
2023-02-11T13:13:59.941Z,0.31
2023-02-11T13:16:48.658Z,0.28
2023-02-11T13:19:34.106Z,0.26
2023-02-11T13:22:14.799Z,0.25
2023-02-11T13:25:15.855Z,0.27
2023-02-11T13:27:50.507Z,0.27
2023-02-11T13:30:29.611Z,0.23
2023-02-11T13:33:00.856Z,0.16
2023-02-11T13:35:32.747Z,0.12
2023-02-11T13:38:03.671Z,0.10
2023-02-11T13:40:41.987Z,0.06
2023-02-11T13:43:22.913Z,0.02
2023-02-11T13:45:52.043Z,-0.02
2023-02-11T13:48:26.648Z,-0.04
2023-02-11T13:51:00.262Z,-0.08
2023-02-11T13:53:29.611Z,-0.14
2023-02-11T13:56:10.233Z,-0.19
2023-02-11T13:58:49.237Z,-0.21
2023-02-11T14:02:21.884Z,-0.23
2023-02-11T14:05:24.698Z,-0.32
2023-02-11T14:08:26.638Z,-0.40
2023-02-11T14:11:02.324Z,-0.46
2023-02-11T14:13:58.115Z,-0.54
2023-02-11T14:16:37.509Z,-0.63
2023-02-11T14:19:08.766Z,-0.69
2023-02-11T14:21:38.595Z,-0.77
2023-02-11T14:24:13.224Z,-0.85
2023-02-11T14:26:49.763Z,-0.91
2023-02-11T14:29:42.692Z,-0.95
2023-02-11T14:32:33.222Z,-1.02
2023-02-11T14:35:05.378Z,-1.08
2023-02-11T14:37:50.617Z,-1.12
2023-02-11T14:40:42.553Z,-1.16
2023-02-11T14:43:17.220Z,-1.23
2023-02-11T14:45:50.110Z,-1.27
2023-02-11T14:48:20.718Z,-1.31
2023-02-11T14:51:00.167Z,-1.34
2023-02-11T14:53:28.656Z,-1.37
2023-02-11T14:56:01.446Z,-1.40
2023-02-11T15:04:40.921Z,-1.45
2023-02-11T15:07:12.323Z,-1.45
2023-02-11T15:09:43.046Z,-1.43
2023-02-11T15:12:26.621Z,-1.42
2023-02-11T15:14:56.796Z,-1.40
2023-02-11T15:17:36.523Z,-1.33
2023-02-11T15:20:06.952Z,-1.25
2023-02-11T15:22:45.327Z,-1.22
2023-02-11T15:25:17.541Z,-1.28
2023-02-11T15:27:56.751Z,-1.36
2023-02-11T15:30:34.561Z,-1.46
2023-02-11T15:33:05.690Z,-1.54
2023-02-11T15:35:39.986Z,-1.60
2023-02-11T15:38:11.280Z,-1.64
2023-02-11T15:40:40.019Z,-1.66
2023-02-11T15:43:11.041Z,-1.69
2023-02-11T15:45:44.841Z,-1.72
2023-02-11T15:48:14.519Z,-1.76
2023-02-11T15:50:44.709Z,-1.79
2023-02-11T15:53:38.040Z,-1.80
2023-02-11T15:56:16.621Z,-1.81
2023-02-11T15:59:19.252Z,-1.82
2023-02-11T16:01:48.318Z,-1.82
2023-02-11T16:04:23.501Z,-1.87
2023-02-11T16:06:58.432Z,-1.90
2023-02-11T16:09:34.301Z,-1.90
2023-02-11T16:12:05.086Z,-1.91
2023-02-11T16:14:37.274Z,-1.93
2023-02-11T16:17:09.822Z,-1.95
2023-02-11T16:19:44.462Z,-1.98
2023-02-11T16:22:17.217Z,-2.01
2023-02-11T16:24:52.765Z,-2.02
2023-02-11T16:27:24.155Z,-2.04
2023-02-11T16:29:53.356Z,-2.06
2023-02-11T16:32:23.770Z,-2.07
2023-02-11T16:34:53.452Z,-2.07
2023-02-11T16:37:21.676Z,-2.09
2023-02-11T16:39:57.136Z,-2.11
2023-02-11T16:42:26.439Z,-2.11
2023-02-11T16:45:01.467Z,-2.10
2023-02-11T16:47:31.498Z,-2.09
2023-02-11T16:50:01.209Z,-2.08
2023-02-11T16:52:31.997Z,-2.07
2023-02-11T16:55:01.678Z,-2.08
2023-02-11T16:57:30.566Z,-2.08
2023-02-11T16:59:59.957Z,-2.09
2023-02-11T17:02:33.480Z,-2.10
2023-02-11T17:05:03.971Z,-2.11
2023-02-11T17:07:33.124Z,-2.11
2023-02-11T17:10:01.617Z,-2.13
2023-02-11T17:12:30.455Z,-2.14
2023-02-11T17:15:00.429Z,-2.16
2023-02-11T17:17:30.696Z,-2.16
2023-02-11T17:20:25.002Z,-2.15
2023-02-11T17:22:54.097Z,-2.14
2023-02-11T17:25:24.952Z,-2.13
2023-02-11T17:27:54.020Z,-2.13
2023-02-11T17:30:23.313Z,-2.12
2023-02-11T17:32:51.653Z,-2.13
2023-02-11T17:35:25.333Z,-2.13
2023-02-11T17:37:54.290Z,-2.13
2023-02-11T17:40:26.837Z,-2.12
2023-02-11T17:42:58.266Z,-2.12
2023-02-11T17:45:27.176Z,-2.14
2023-02-11T17:47:55.449Z,-2.16
2023-02-11T17:50:23.697Z,-2.19
2023-02-11T17:52:54.063Z,-2.24
2023-02-11T17:55:24.321Z,-2.28
2023-02-11T17:57:52.730Z,-2.31
2023-02-11T18:00:22.934Z,-2.34
2023-02-11T18:02:52.415Z,-2.35
2023-02-11T18:05:21.443Z,-2.34
2023-02-11T18:07:52.081Z,-2.31
2023-02-11T18:10:21.336Z,-2.25
2023-02-11T18:12:50.281Z,-2.19
2023-02-11T18:15:19.076Z,-2.14
2023-02-11T18:17:47.683Z,-2.09
2023-02-11T18:20:16.244Z,-2.05
2023-02-11T18:22:49.205Z,-2.01
2023-02-11T18:25:18.995Z,-1.98
2023-02-11T18:27:47.345Z,-1.95
2023-02-11T18:30:17.637Z,-1.91
2023-02-11T18:32:47.317Z,-1.88
2023-02-11T18:35:17.515Z,-1.86
2023-02-11T18:37:45.961Z,-1.85
2023-02-11T18:40:17.250Z,-1.84
2023-02-11T18:42:46.428Z,-1.85
2023-02-11T18:45:15.787Z,-1.86
2023-02-11T18:55:26.953Z,-1.90
2023-02-11T18:57:55.352Z,-1.95
2023-02-11T19:00:24.581Z,-1.98
2023-02-11T19:02:54.733Z,-2.00
2023-02-11T19:05:26.314Z,-2.04
2023-02-11T19:07:56.765Z,-2.07
2023-02-11T19:10:50.724Z,-2.09
2023-02-11T19:13:19.139Z,-2.10
2023-02-11T19:15:48.242Z,-2.12
2023-02-11T19:18:17.887Z,-2.13
2023-02-11T19:20:49.150Z,-2.13
2023-02-11T19:23:18.334Z,-2.13
2023-02-11T19:25:47.754Z,-2.11
2023-02-11T19:28:16.776Z,-2.09
2023-02-11T19:30:46.553Z,-2.09
2023-02-11T19:33:15.095Z,-2.07
2023-02-11T19:35:43.882Z,-2.05
2023-02-11T19:38:16.086Z,-2.04
2023-02-11T19:40:45.078Z,-2.02
2023-02-11T19:43:13.373Z,-2.00
2023-02-11T19:45:41.989Z,-1.99
2023-02-11T19:48:13.124Z,-1.98
2023-02-11T19:50:42.075Z,-1.97
2023-02-11T19:53:11.690Z,-1.97
2023-02-11T19:55:40.149Z,-1.97
2023-02-11T19:58:08.612Z,-1.96
2023-02-11T20:02:18.975Z,-1.94
2023-02-11T20:04:47.450Z,-1.97
2023-02-11T20:07:15.928Z,-1.96
2023-02-11T20:09:44.349Z,-1.97
2023-02-11T20:12:12.757Z,-1.99
2023-02-11T20:14:42.942Z,-2.01
2023-02-11T20:17:11.709Z,-2.02
2023-02-11T20:19:42.574Z,-2.01
2023-02-11T20:22:11.972Z,-1.99
2023-02-11T20:24:40.581Z,-1.97
2023-02-11T20:27:11.564Z,-1.97
2023-02-11T20:29:39.931Z,-1.98
2023-02-11T20:32:08.692Z,-1.97
2023-02-11T20:34:38.799Z,-1.97
2023-02-11T20:37:08.657Z,-1.97
2023-02-11T20:39:41.566Z,-1.97
2023-02-11T20:42:11.975Z,-1.97
2023-02-11T20:44:41.100Z,-1.95
2023-02-11T20:47:09.478Z,-1.95
2023-02-11T20:49:37.709Z,-1.95
2023-02-11T20:52:08.629Z,-1.95
2023-02-11T20:54:38.378Z,-1.95
2023-02-11T20:57:07.637Z,-1.94
2023-02-11T20:59:36.607Z,-1.92
2023-02-11T21:02:08.455Z,-1.90
2023-02-11T21:07:34.428Z,-1.84
2023-02-11T21:10:03.158Z,-1.82
2023-02-11T21:12:31.667Z,-1.78
2023-02-11T21:14:59.966Z,-1.77
2023-02-11T21:17:29.137Z,-1.76
2023-02-11T21:20:03.043Z,-1.74
2023-02-11T21:22:31.937Z,-1.73
2023-02-11T21:25:03.480Z,-1.72
2023-02-11T21:27:34.638Z,-1.72
2023-02-11T21:30:03.026Z,-1.71
2023-02-11T21:32:31.983Z,-1.70
2023-02-11T21:35:02.385Z,-1.70
2023-02-11T21:37:31.782Z,-1.70
2023-02-11T21:40:00.434Z,-1.70
2023-02-11T21:42:32.404Z,-1.70
2023-02-11T21:45:00.857Z,-1.70
2023-02-11T21:47:33.081Z,-1.71
2023-02-11T21:50:01.664Z,-1.72
2023-02-11T21:52:30.480Z,-1.71
2023-02-11T21:54:59.086Z,-1.71
2023-02-11T21:57:27.858Z,-1.70
2023-02-11T21:59:56.757Z,-1.70
2023-02-11T22:02:25.535Z,-1.69
2023-02-11T22:04:54.845Z,-1.69
2023-02-11T22:07:23.687Z,-1.68
2023-02-11T22:09:55.869Z,-1.68
2023-02-11T22:12:24.963Z,-1.67
2023-02-11T22:14:53.412Z,-1.67
2023-02-11T22:17:22.337Z,-1.64
2023-02-11T22:19:50.571Z,-1.57
2023-02-11T22:22:19.954Z,-1.52
2023-02-11T22:24:51.996Z,-1.49
2023-02-11T22:27:23.723Z,-1.46
2023-02-11T22:29:52.585Z,-1.47
2023-02-11T22:32:20.771Z,-1.49
2023-02-11T22:34:52.119Z,-1.50
2023-02-11T22:37:50.444Z,-1.49
2023-02-11T22:40:18.986Z,-1.41
2023-02-11T22:42:48.262Z,-1.34
2023-02-11T22:45:16.943Z,-1.30
2023-02-11T22:47:45.692Z,-1.29
2023-02-11T22:50:13.962Z,-1.33
2023-02-11T22:52:42.942Z,-1.35
2023-02-11T22:55:11.105Z,-1.37
2023-02-11T22:57:39.705Z,-1.39
2023-02-11T23:00:11.871Z,-1.35
2023-02-11T23:02:40.864Z,-1.29
2023-02-11T23:05:09.253Z,-1.27
2023-02-11T23:07:38.450Z,-1.26
2023-02-11T23:10:07.580Z,-1.30
2023-02-11T23:12:36.173Z,-1.33
2023-02-11T23:15:05.359Z,-1.34
2023-02-11T23:17:34.280Z,-1.35
2023-02-11T23:20:02.649Z,-1.32
2023-02-11T23:22:31.209Z,-1.28
2023-02-11T23:25:03.638Z,-1.26
2023-02-11T23:27:33.866Z,-1.24
2023-02-11T23:30:02.310Z,-1.28
2023-02-11T23:32:36.213Z,-1.31
2023-02-11T23:35:05.674Z,-1.34
2023-02-11T23:37:38.864Z,-1.35
2023-02-11T23:40:07.996Z,-1.30
2023-02-11T23:42:36.982Z,-1.26
2023-02-11T23:45:07.062Z,-1.23
2023-02-11T23:47:35.779Z,-1.22
2023-02-11T23:50:04.602Z,-1.25
2023-02-11T23:52:33.302Z,-1.27
2023-02-11T23:55:02.545Z,-1.29
2023-02-11T23:57:34.066Z,-1.31
